Time;durP1;ratioP1;P1;durP2;ratioP2;P2;SDS_P1;SDS_P2;PMS_P1;PMS_P2;Temp;Humidity;BMP_temperature;BMP_pressure;BME280_temperature;BME280_humidity;BME280_pressure;Samples;Min_cycle;Max_cycle;Signal;HPM_P1;HPM_P2
2022/08/20 00:00:21;;;;;;;6.57;2.83;;;22.40;99.90;;;;;;7382140;19;109308;-93
2022/08/20 00:03:01;;;;;;;4.05;3.10;;;22.40;99.90;;;;;;7386445;19;108749;-93
2022/08/20 00:05:32;;;;;;;4.95;3.10;;;22.40;99.90;;;;;;7379471;19;109669;-92
2022/08/20 00:07:59;;;;;;;7.97;3.38;;;22.30;99.90;;;;;;7379963;19;108770;-93
2022/08/20 00:10:28;;;;;;;7.00;3.20;;;22.40;99.90;;;;;;7380920;19;109483;-92
2022/08/20 00:12:56;;;;;;;5.68;3.25;;;22.30;99.90;;;;;;7380421;19;110159;-93
2022/08/20 00:15:29;;;;;;;7.32;3.20;;;22.30;99.90;;;;;;7378226;19;108899;-94
2022/08/20 00:17:56;;;;;;;10.73;3.90;;;22.30;99.90;;;;;;7381166;19;108797;-93
2022/08/20 00:20:28;;;;;;;8.80;3.30;;;22.30;99.90;;;;;;7377405;19;110283;-92
2022/08/20 00:22:56;;;;;;;8.43;3.78;;;22.30;99.90;;;;;;7381633;19;108877;-92
2022/08/20 00:25:28;;;;;;;6.40;3.63;;;22.30;99.90;;;;;;7357242;19;110505;-93
2022/08/20 00:27:57;;;;;;;6.47;4.20;;;22.30;99.90;;;;;;7348017;19;109480;-92
2022/08/20 00:30:25;;;;;;;7.47;4.65;;;22.20;99.90;;;;;;7348700;19;112361;-93
2022/08/20 00:32:56;;;;;;;11.35;4.70;;;22.20;99.90;;;;;;7347771;19;111371;-92
2022/08/20 00:35:27;;;;;;;8.32;4.53;;;22.20;99.90;;;;;;7349917;19;109636;-94
2022/08/20 00:37:55;;;;;;;6.10;3.95;;;22.20;99.90;;;;;;7349834;19;110038;-93
2022/08/20 00:40:31;;;;;;;9.43;4.63;;;22.20;99.90;;;;;;7350649;19;111419;-92
2022/08/20 00:43:01;;;;;;;8.13;3.95;;;22.10;99.90;;;;;;7349496;19;109790;-93
2022/08/20 00:45:30;;;;;;;10.02;4.95;;;22.10;99.90;;;;;;7354497;19;110729;-93
2022/08/20 00:47:57;;;;;;;13.23;4.80;;;22.10;99.90;;;;;;7348064;19;109697;-93
2022/08/20 00:50:36;;;;;;;10.95;4.60;;;22.10;99.90;;;;;;7350815;19;110710;-93
2022/08/20 00:53:06;;;;;;;9.50;4.53;;;22.00;99.90;;;;;;7347857;19;111246;-93
2022/08/20 00:55:35;;;;;;;10.02;3.92;;;22.00;99.90;;;;;;7348509;19;109147;-94
2022/08/20 00:58:07;;;;;;;11.05;4.45;;;22.00;99.90;;;;;;7349776;19;109663;-93
2022/08/20 01:00:44;;;;;;;15.05;4.47;;;22.00;99.90;;;;;;7349276;19;111923;-93
2022/08/20 01:03:13;;;;;;;9.80;4.53;;;22.00;99.90;;;;;;7349207;19;109185;-92
2022/08/20 01:05:44;;;;;;;17.35;5.60;;;21.90;99.90;;;;;;7348966;19;110988;-92
2022/08/20 01:08:11;;;;;;;12.15;5.38;;;21.90;99.90;;;;;;7352422;19;113185;-93
2022/08/20 01:10:43;;;;;;;11.35;5.43;;;21.90;99.90;;;;;;7347043;19;110011;-92
2022/08/20 01:13:17;;;;;;;10.10;6.07;;;21.80;99.90;;;;;;7346550;19;110641;-92
2022/08/20 01:15:47;;;;;;;10.63;6.25;;;21.80;99.90;;;;;;7345582;19;110301;-92
2022/08/20 01:18:18;;;;;;;10.70;6.15;;;21.80;99.90;;;;;;7346366;19;110704;-92
2022/08/20 01:20:50;;;;;;;8.52;6.38;;;21.80;99.90;;;;;;7346531;19;110368;-92
2022/08/20 01:23:26;;;;;;;11.30;6.32;;;21.70;99.90;;;;;;7348067;19;109279;-93
2022/08/20 01:26:18;;;;;;;14.50;6.80;;;21.70;99.90;;;;;;7347602;19;109771;-92
2022/08/20 01:28:58;;;;;;;11.00;6.85;;;21.70;99.90;;;;;;7344430;19;114106;-92
2022/08/20 01:31:28;;;;;;;10.82;6.95;;;21.60;99.90;;;;;;7352695;19;110806;-92
2022/08/20 01:33:57;;;;;;;13.20;7.13;;;21.60;99.90;;;;;;7343900;19;110618;-91
2022/08/20 01:36:29;;;;;;;12.27;6.97;;;21.60;99.90;;;;;;7346349;19;109408;-93
2022/08/20 01:38:58;;;;;;;12.40;6.68;;;21.50;99.90;;;;;;7346161;19;109906;-93
2022/08/20 01:41:37;;;;;;;13.75;6.40;;;21.50;99.90;;;;;;7346473;19;113447;-92
2022/08/20 01:44:04;;;;;;;8.93;6.30;;;21.40;99.90;;;;;;7346652;19;109592;-92
2022/08/20 01:46:38;;;;;;;11.20;7.30;;;21.40;99.90;;;;;;7344654;19;109419;-93
2022/08/20 01:49:22;;;;;;;10.27;6.80;;;21.30;99.90;;;;;;7340859;19;110884;-93
2022/08/20 01:51:54;;;;;;;12.70;7.05;;;21.30;99.90;;;;;;7346269;19;110421;-92
2022/08/20 01:54:22;;;;;;;12.07;7.03;;;21.30;99.90;;;;;;7351029;19;112715;-93
2022/08/20 01:57:12;;;;;;;12.52;7.70;;;21.30;99.90;;;;;;7347033;19;109035;-93
2022/08/20 01:59:40;;;;;;;11.18;6.95;;;21.20;99.90;;;;;;7348434;19;112685;-94
2022/08/20 02:02:09;;;;;;;13.25;7.70;;;21.20;99.90;;;;;;7346154;19;112555;-94
2022/08/20 02:04:36;;;;;;;14.27;8.00;;;21.10;99.90;;;;;;7346891;19;109315;-92
2022/08/20 02:07:05;;;;;;;13.05;7.70;;;21.10;99.90;;;;;;7347159;19;109772;-93
2022/08/20 02:09:38;;;;;;;12.77;7.35;;;21.00;99.90;;;;;;7344189;19;110143;-94
2022/08/20 02:12:07;;;;;;;18.13;7.20;;;21.00;99.90;;;;;;7345072;19;109210;-93
2022/08/20 02:14:38;;;;;;;15.60;7.60;;;21.00;99.90;;;;;;7346149;19;110831;-93
2022/08/20 02:17:05;;;;;;;19.23;7.82;;;20.90;99.90;;;;;;7346238;19;111503;-94
2022/08/20 02:19:39;;;;;;;17.98;7.25;;;20.90;99.90;;;;;;7344318;19;111114;-92
2022/08/20 02:22:15;;;;;;;15.68;7.68;;;20.90;99.90;;;;;;7346005;19;111052;-94
2022/08/20 02:24:43;;;;;;;15.77;7.78;;;20.80;99.90;;;;;;7346903;19;109440;-94
2022/08/20 02:27:11;;;;;;;12.80;6.47;;;20.80;99.90;;;;;;7347977;19;113387;-93
2022/08/20 02:29:38;;;;;;;16.85;6.75;;;20.70;99.90;;;;;;7345444;19;111431;-93
2022/08/20 02:32:06;;;;;;;13.60;6.80;;;20.70;99.90;;;;;;7346114;19;109428;-93
2022/08/20 02:34:53;;;;;;;16.83;6.78;;;20.70;99.90;;;;;;7344960;19;111302;-93
2022/08/20 02:37:20;;;;;;;20.98;6.38;;;20.60;99.90;;;;;;7345541;19;113047;-93
2022/08/20 02:39:47;;;;;;;14.48;6.53;;;20.60;99.90;;;;;;7350701;19;109451;-93
2022/08/20 02:42:15;;;;;;;18.80;6.90;;;20.50;99.90;;;;;;7342785;19;111534;-92
2022/08/20 02:44:42;;;;;;;19.35;6.53;;;20.50;99.90;;;;;;7344972;19;109566;-92
2022/08/20 02:47:09;;;;;;;15.60;6.40;;;20.40;99.90;;;;;;7344272;19;110523;-93
2022/08/20 02:49:37;;;;;;;19.23;6.70;;;20.40;99.90;;;;;;7343157;19;109858;-93
2022/08/20 02:52:04;;;;;;;18.77;6.60;;;20.40;99.90;;;;;;7342900;19;110342;-93
2022/08/20 02:54:31;;;;;;;17.02;7.07;;;20.30;99.90;;;;;;7340345;19;110141;-92
2022/08/20 02:56:58;;;;;;;17.52;7.07;;;20.20;99.90;;;;;;7345447;19;109735;-94
2022/08/20 02:59:25;;;;;;;19.08;5.97;;;20.20;99.90;;;;;;7350644;19;109440;-92
2022/08/20 03:01:52;;;;;;;17.42;6.55;;;20.20;99.90;;;;;;7345641;19;111258;-93
2022/08/20 03:04:27;;;;;;;19.52;7.28;;;20.10;99.90;;;;;;7349761;19;111385;-93
2022/08/20 03:06:54;;;;;;;18.05;6.82;;;20.10;99.90;;;;;;7352490;19;109033;-93
2022/08/20 03:09:21;;;;;;;19.88;7.00;;;20.00;99.90;;;;;;7349673;19;110972;-93
2022/08/20 03:11:48;;;;;;;23.65;7.22;;;20.00;99.90;;;;;;7351000;19;109070;-94
2022/08/20 03:14:15;;;;;;;14.40;6.32;;;20.00;99.90;;;;;;7351614;19;110535;-93
2022/08/20 03:16:42;;;;;;;14.05;6.30;;;19.90;99.90;;;;;;7350355;19;112846;-93
2022/08/20 03:19:09;;;;;;;17.25;6.78;;;19.90;99.90;;;;;;7350100;19;109483;-93
2022/08/20 03:21:36;;;;;;;17.27;6.20;;;19.90;99.90;;;;;;7355211;19;112332;-94
2022/08/20 03:24:04;;;;;;;16.15;6.63;;;19.80;99.90;;;;;;7352620;19;110013;-90
2022/08/20 03:26:31;;;;;;;17.13;5.43;;;19.80;99.90;;;;;;7350766;19;110796;-92
2022/08/20 03:28:58;;;;;;;15.57;6.00;;;19.80;99.90;;;;;;7351319;19;111105;-92
2022/08/20 03:31:25;;;;;;;15.80;6.43;;;19.80;99.90;;;;;;7351080;19;110542;-94
2022/08/20 03:33:52;;;;;;;16.75;4.95;;;19.70;99.90;;;;;;7348017;19;110204;-93
2022/08/20 03:36:21;;;;;;;14.32;5.20;;;19.70;99.90;;;;;;7351153;19;111041;-94
2022/08/20 03:38:59;;;;;;;12.02;5.05;;;19.60;99.90;;;;;;7350554;19;109203;-94
2022/08/20 03:41:27;;;;;;;15.75;5.57;;;19.60;99.90;;;;;;7348006;19;110329;-93
2022/08/20 03:43:55;;;;;;;14.70;4.95;;;19.60;99.90;;;;;;7355212;19;112197;-92
2022/08/20 03:46:22;;;;;;;15.20;5.13;;;19.60;99.90;;;;;;7349775;19;111833;-93
2022/08/20 03:48:54;;;;;;;16.73;4.80;;;19.60;99.90;;;;;;7349867;19;110153;-92
2022/08/20 03:51:29;;;;;;;15.48;5.50;;;19.60;99.90;;;;;;7351532;19;109117;-93
2022/08/20 03:53:57;;;;;;;21.73;5.47;;;19.50;99.90;;;;;;7349650;19;112887;-93
2022/08/20 03:56:25;;;;;;;16.58;5.07;;;19.50;99.90;;;;;;7349594;19;113373;-94
2022/08/20 03:58:52;;;;;;;17.50;5.45;;;19.50;99.90;;;;;;7357035;19;111994;-94
2022/08/20 04:01:19;;;;;;;18.27;5.75;;;19.50;99.90;;;;;;7381778;19;108968;-94
2022/08/20 04:04:06;;;;;;;17.33;5.57;;;19.50;99.90;;;;;;7380627;19;112341;-94
2022/08/20 04:06:38;;;;;;;18.10;5.18;;;19.50;99.90;;;;;;7386284;19;110352;-94
2022/08/20 04:09:07;;;;;;;23.95;5.22;;;19.50;99.90;;;;;;7380937;19;109305;-94
2022/08/20 04:11:38;;;;;;;15.63;5.00;;;19.50;99.90;;;;;;7380151;19;110634;-93
2022/08/20 04:14:06;;;;;;;21.38;5.88;;;19.50;99.90;;;;;;7381187;19;109106;-93
2022/08/20 04:16:35;;;;;;;22.30;6.18;;;19.50;99.90;;;;;;7381212;19;111180;-94
2022/08/20 04:19:03;;;;;;;17.08;5.88;;;19.50;99.90;;;;;;7380544;19;108354;-93
2022/08/20 04:21:31;;;;;;;15.23;5.35;;;19.50;99.90;;;;;;7380098;19;108517;-93
2022/08/20 04:24:01;;;;;;;13.48;5.38;;;19.50;99.90;;;;;;7380939;19;110441;-93
2022/08/20 04:26:29;;;;;;;19.05;5.60;;;19.50;99.90;;;;;;7383110;19;108736;-95
2022/08/20 04:28:56;;;;;;;18.52;5.65;;;19.50;99.90;;;;;;7385227;19;109727;-93
2022/08/20 04:31:23;;;;;;;21.00;6.13;;;19.50;99.90;;;;;;7381503;19;109962;-93
2022/08/20 04:33:51;;;;;;;23.27;5.80;;;19.50;99.90;;;;;;7379974;19;111060;-93
2022/08/20 04:36:18;;;;;;;17.40;5.80;;;19.50;99.90;;;;;;7378954;19;112349;-95
2022/08/20 04:38:45;;;;;;;20.30;6.13;;;19.50;99.90;;;;;;7379728;19;109478;-93
2022/08/20 04:41:20;;;;;;;18.33;5.85;;;19.50;99.90;;;;;;7380366;19;110052;-92
2022/08/20 04:43:54;;;;;;;16.65;6.43;;;19.50;99.90;;;;;;7379553;19;109002;-93
2022/08/20 04:46:24;;;;;;;24.80;5.85;;;19.50;99.90;;;;;;7379233;19;109522;-93
2022/08/20 04:48:52;;;;;;;25.25;6.47;;;19.50;99.90;;;;;;7379855;19;108312;-93
2022/08/20 04:51:20;;;;;;;17.88;6.18;;;19.50;99.90;;;;;;7383342;19;111311;-92
2022/08/20 04:53:52;;;;;;;20.02;5.78;;;19.50;99.90;;;;;;7380251;19;109813;-93
2022/08/20 04:56:29;;;;;;;18.98;6.63;;;19.50;99.90;;;;;;7379251;19;111343;-92
2022/08/20 04:58:58;;;;;;;21.42;6.30;;;19.50;99.90;;;;;;7379640;19;109433;-93
2022/08/20 05:01:26;;;;;;;19.20;6.65;;;19.50;99.90;;;;;;7378097;19;110160;-93
2022/08/20 05:03:54;;;;;;;23.00;7.05;;;19.40;99.90;;;;;;7377940;19;110458;-94
2022/08/20 05:06:27;;;;;;;17.92;6.25;;;19.50;99.90;;;;;;7379615;19;108602;-92
2022/08/20 05:08:55;;;;;;;23.25;6.80;;;19.40;99.90;;;;;;7378088;19;109348;-92
2022/08/20 05:11:23;;;;;;;21.60;6.97;;;19.40;99.90;;;;;;7378298;19;110015;-92
2022/08/20 05:14:07;;;;;;;16.30;6.10;;;19.40;99.90;;;;;;7377093;19;112021;-93
2022/08/20 05:16:39;;;;;;;20.90;6.57;;;19.40;99.90;;;;;;7377021;19;110161;-92
2022/08/20 05:19:10;;;;;;;16.73;6.20;;;19.40;99.90;;;;;;7377491;19;108949;-93
2022/08/20 05:21:38;;;;;;;22.50;6.22;;;19.40;99.90;;;;;;7377129;19;109625;-92
2022/08/20 05:24:06;;;;;;;27.05;6.50;;;19.40;99.90;;;;;;7372580;19;110347;-92
2022/08/20 05:26:33;;;;;;;23.55;7.10;;;19.40;99.90;;;;;;7375660;19;109121;-93
2022/08/20 05:29:03;;;;;;;22.38;6.93;;;19.40;99.90;;;;;;7374528;19;111833;-93
2022/08/20 05:31:32;;;;;;;26.73;7.40;;;19.50;99.90;;;;;;7372182;19;111459;-93
2022/08/20 05:34:08;;;;;;;21.23;7.30;;;19.50;99.90;;;;;;7381238;19;108633;-93
2022/08/20 05:36:40;;;;;;;31.55;7.72;;;19.50;99.90;;;;;;7372694;19;112513;-93
2022/08/20 05:39:07;;;;;;;27.63;7.97;;;19.40;99.90;;;;;;7376141;19;108396;-93
2022/08/20 05:41:35;;;;;;;25.55;7.50;;;19.50;99.90;;;;;;7373110;19;109826;-93
2022/08/20 05:44:02;;;;;;;26.17;7.75;;;19.50;99.90;;;;;;7349029;19;111625;-92
2022/08/20 05:46:30;;;;;;;24.00;7.53;;;19.50;99.90;;;;;;7341066;19;109392;-92
2022/08/20 05:49:00;;;;;;;27.25;8.63;;;19.40;99.90;;;;;;7340882;19;112957;-93
2022/08/20 05:51:28;;;;;;;25.40;7.80;;;19.50;99.90;;;;;;7339539;19;114021;-92
2022/08/20 05:53:56;;;;;;;18.48;7.30;;;19.50;99.90;;;;;;7341471;19;110384;-92
2022/08/20 05:56:28;;;;;;;24.65;7.70;;;19.50;99.90;;;;;;7346325;19;111895;-93
2022/08/20 05:59:00;;;;;;;22.25;8.02;;;19.40;99.90;;;;;;7341171;19;109149;-92
2022/08/20 06:01:27;;;;;;;28.42;8.18;;;19.50;99.90;;;;;;7342096;19;109211;-92
2022/08/20 06:06:39;;;;;;;24.27;8.18;;;19.50;99.90;;;;;;7343845;19;109271;-92
2022/08/20 06:09:16;;;;;;;26.77;9.52;;;19.50;99.90;;;;;;7340743;19;111062;-93
2022/08/20 06:12:02;;;;;;;33.45;8.93;;;19.50;99.90;;;;;;7339835;19;111363;-92
2022/08/20 06:14:30;;;;;;;25.67;8.23;;;19.50;99.90;;;;;;7340162;19;109275;-92
2022/08/20 06:17:10;;;;;;;26.05;8.57;;;19.50;99.90;;;;;;7341310;19;110725;-91
2022/08/20 06:19:40;;;;;;;28.33;9.15;;;19.60;99.90;;;;;;7344318;19;114251;-92
2022/08/20 06:22:10;;;;;;;40.50;9.15;;;19.60;99.90;;;;;;7341480;19;112743;-91
2022/08/20 06:24:50;;;;;;;35.85;10.00;;;19.60;99.90;;;;;;7341401;19;112573;-92
2022/08/20 06:27:17;;;;;;;34.28;10.20;;;19.60;99.90;;;;;;7341116;19;110530;-93
2022/08/20 06:29:44;;;;;;;38.63;10.65;;;19.60;99.90;;;;;;7337637;19;115535;-85
2022/08/20 06:32:11;;;;;;;38.72;10.65;;;19.60;99.90;;;;;;7336888;19;114094;-85
2022/08/20 06:34:38;;;;;;;32.95;9.82;;;19.60;99.90;;;;;;7336009;19;111483;-84
2022/08/20 06:37:26;;;;;;;33.15;10.70;;;19.60;99.90;;;;;;7339611;19;110077;-88
2022/08/20 06:40:06;;;;;;;36.88;11.43;;;19.60;99.90;;;;;;7337414;19;111217;-86
2022/08/20 06:42:34;;;;;;;32.42;10.13;;;19.70;99.90;;;;;;7340208;19;111305;-85
2022/08/20 06:45:04;;;;;;;37.70;11.27;;;19.70;99.90;;;;;;7334354;19;111335;-88
2022/08/20 06:47:32;;;;;;;37.17;11.82;;;19.70;99.90;;;;;;7333543;19;110410;-85
2022/08/20 06:49:59;;;;;;;42.40;12.05;;;19.70;99.90;;;;;;7334199;19;111207;-84
2022/08/20 06:52:26;;;;;;;38.15;11.60;;;19.80;99.90;;;;;;7334614;19;111703;-85
2022/08/20 06:55:15;;;;;;;36.90;12.40;;;19.70;99.90;;;;;;7336369;19;112607;-85
2022/08/20 06:57:42;;;;;;;46.47;13.48;;;19.80;99.90;;;;;;7335155;19;110970;-84
2022/08/20 07:00:17;;;;;;;43.10;13.35;;;19.80;99.90;;;;;;7336854;19;111513;-85
2022/08/20 07:02:46;;;;;;;37.83;13.25;;;19.80;99.90;;;;;;7330624;19;110857;-85
2022/08/20 07:05:15;;;;;;;47.00;12.75;;;19.80;99.90;;;;;;7339458;19;111835;-85
2022/08/20 07:07:46;;;;;;;43.60;12.48;;;19.90;99.90;;;;;;7335629;19;113941;-85
2022/08/20 07:10:14;;;;;;;38.08;13.70;;;19.90;99.90;;;;;;7333767;19;113681;-85
2022/08/20 07:12:41;;;;;;;40.28;13.50;;;20.00;99.90;;;;;;7334179;19;110243;-85
2022/08/20 07:15:10;;;;;;;42.28;13.43;;;20.00;99.90;;;;;;7335886;19;111778;-85
2022/08/20 07:17:39;;;;;;;35.42;15.38;;;20.00;99.90;;;;;;7332612;19;115518;-85
2022/08/20 07:20:12;;;;;;;44.25;17.25;;;20.10;99.90;;;;;;7334882;19;111192;-84
2022/08/20 07:22:41;;;;;;;49.10;16.88;;;20.00;99.90;;;;;;7334070;19;114962;-85
2022/08/20 07:25:11;;;;;;;41.97;16.00;;;20.10;99.90;;;;;;7337573;19;110802;-85
2022/08/20 07:27:39;;;;;;;44.88;15.52;;;20.10;99.90;;;;;;7334607;19;111533;-85
2022/08/20 07:32:57;;;;;;;52.58;17.15;;;20.20;99.90;;;;;;7336893;19;112466;-90
2022/08/20 07:35:26;;;;;;;40.00;16.63;;;20.20;99.90;;;;;;7335857;19;112938;-92
2022/08/20 07:37:55;;;;;;;45.63;16.25;;;20.30;99.90;;;;;;7337233;19;111832;-90
2022/08/20 07:40:33;;;;;;;45.63;15.90;;;20.40;99.90;;;;;;7338747;19;111425;-91
2022/08/20 07:43:01;;;;;;;52.50;16.92;;;20.50;99.90;;;;;;7339651;19;111949;-90
2022/08/20 07:45:29;;;;;;;52.65;17.52;;;20.60;99.90;;;;;;7337538;19;111926;-91
2022/08/20 07:48:06;;;;;;;40.63;17.58;;;20.70;99.90;;;;;;7345635;19;111302;-89
2022/08/20 07:50:33;;;;;;;49.60;19.40;;;20.80;99.90;;;;;;7340727;19;114209;-95
2022/08/20 07:53:00;;;;;;;47.88;17.63;;;20.90;99.90;;;;;;7341434;19;110958;-89
2022/08/20 07:55:29;;;;;;;46.53;18.17;;;21.00;99.90;;;;;;7342657;19;111311;-87
2022/08/20 07:57:58;;;;;;;41.38;18.60;;;21.10;99.90;;;;;;7340443;19;111308;-87
2022/08/20 08:00:26;;;;;;;49.70;18.33;;;21.20;99.90;;;;;;7342190;19;110201;-88
2022/08/20 08:02:53;;;;;;;54.00;21.08;;;21.30;99.90;;;;;;7342638;19;114389;-87
2022/08/20 08:05:20;;;;;;;49.30;19.95;;;21.40;99.90;;;;;;7339921;19;112518;-87
2022/08/20 08:07:47;;;;;;;50.17;19.42;;;21.40;99.90;;;;;;7337905;19;110724;-88
2022/08/20 08:10:20;;;;;;;48.55;19.50;;;21.50;99.90;;;;;;7345050;19;111737;-88
2022/08/20 08:12:53;;;;;;;49.67;19.48;;;21.60;99.90;;;;;;7341274;19;113713;-87
2022/08/20 08:15:27;;;;;;;40.00;18.10;;;21.70;99.90;;;;;;7339350;19;110432;-88
2022/08/20 08:18:00;;;;;;;42.30;19.85;;;21.80;99.90;;;;;;7338703;19;111335;-87
2022/08/20 08:20:27;;;;;;;54.97;19.25;;;21.80;99.90;;;;;;7341636;19;113805;-89
2022/08/20 08:22:56;;;;;;;42.47;19.23;;;21.80;99.90;;;;;;7339236;19;114615;-88
2022/08/20 08:25:23;;;;;;;46.28;19.77;;;21.80;99.90;;;;;;7341158;19;111766;-88
2022/08/20 08:27:50;;;;;;;36.13;18.23;;;21.80;99.90;;;;;;7339888;19;110357;-88
2022/08/20 08:30:17;;;;;;;48.03;19.52;;;21.90;99.90;;;;;;7339821;19;110804;-88
2022/08/20 08:35:33;;;;;;;34.95;17.40;;;22.30;99.90;;;;;;7345103;19;111909;-93
2022/08/20 08:38:01;;;;;;;37.83;18.77;;;22.50;99.90;;;;;;7339770;19;112949;-89
2022/08/20 08:40:30;;;;;;;35.38;17.17;;;22.60;99.90;;;;;;7340189;19;115476;-89
2022/08/20 08:43:01;;;;;;;28.02;16.38;;;22.70;99.90;;;;;;7341152;19;110985;-89
2022/08/20 08:45:42;;;;;;;37.22;15.57;;;22.70;99.90;;;;;;7338164;19;111965;-89
2022/08/20 08:48:12;;;;;;;37.72;16.13;;;22.70;99.90;;;;;;7339816;19;111760;-90
2022/08/20 08:50:48;;;;;;;23.42;13.30;;;22.70;99.90;;;;;;7341026;19;114874;-90
2022/08/20 08:53:54;;;;;;;31.08;14.52;;;22.70;99.90;;;;;;7340409;19;112170;-90
2022/08/20 08:56:25;;;;;;;36.10;13.88;;;22.80;99.90;;;;;;7344100;19;110914;-89
2022/08/20 08:58:54;;;;;;;26.77;11.07;;;23.00;99.90;;;;;;7340565;19;111652;-90
2022/08/20 09:01:23;;;;;;;20.25;10.10;;;23.10;99.90;;;;;;7340614;19;114424;-89
2022/08/20 09:04:15;;;;;;;24.52;10.95;;;23.20;99.90;;;;;;7339094;19;113845;-89
2022/08/20 09:06:48;;;;;;;;;;;23.30;99.90;;;;;;7339104;19;113174;-89
2022/08/20 09:09:31;;;;;;;26.83;10.40;;;23.20;99.90;;;;;;7346666;19;110180;-89
2022/08/20 09:12:19;;;;;;;17.38;9.07;;;23.30;99.90;;;;;;7340658;19;109795;-90
2022/08/20 09:14:47;;;;;;;;;;;23.40;99.90;;;;;;7343062;19;110854;-89
2022/08/20 09:17:16;;;;;;;13.15;7.82;;;23.50;99.90;;;;;;7344081;19;111097;-88
2022/08/20 09:19:43;;;;;;;17.88;7.00;;;23.60;99.90;;;;;;7346443;19;110572;-89
2022/08/20 09:22:13;;;;;;;19.50;7.28;;;23.70;99.90;;;;;;7341445;19;111272;-89
2022/08/20 09:24:41;;;;;;;15.38;7.50;;;23.80;99.90;;;;;;7341843;19;110615;-90
2022/08/20 09:27:09;;;;;;;15.15;7.20;;;23.90;99.90;;;;;;7340765;19;113763;-87
2022/08/20 09:29:37;;;;;;;17.70;5.43;;;24.00;99.90;;;;;;7340656;19;114688;-88
2022/08/20 09:32:14;;;;;;;14.55;5.20;;;24.10;99.90;;;;;;7339895;19;109474;-87
2022/08/20 09:34:50;;;;;;;10.93;5.47;;;24.10;99.90;;;;;;7342220;19;113230;-90
2022/08/20 09:37:18;;;;;;;18.38;5.22;;;24.10;99.90;;;;;;7339764;19;113315;-89
2022/08/20 09:39:46;;;;;;;10.85;4.45;;;24.20;99.90;;;;;;7345789;19;109796;-89
2022/08/20 09:42:18;;;;;;;14.15;4.32;;;24.30;99.90;;;;;;7339048;19;111567;-89
2022/08/20 09:44:46;;;;;;;11.32;4.00;;;24.30;99.90;;;;;;7341950;19;110379;-90
2022/08/20 09:47:13;;;;;;;9.40;3.83;;;24.30;99.90;;;;;;7342567;19;110218;-89
2022/08/20 09:49:40;;;;;;;8.98;2.80;;;24.20;99.90;;;;;;7339813;19;111497;-86
2022/08/20 09:52:10;;;;;;;14.63;3.42;;;24.20;99.90;;;;;;7340011;19;109972;-89
2022/08/20 09:54:39;;;;;;;11.27;2.28;;;24.20;99.90;;;;;;7341521;19;110545;-89
2022/08/20 09:57:14;;;;;;;11.70;2.28;;;24.30;99.90;;;;;;7338887;19;110615;-89
2022/08/20 09:59:41;;;;;;;9.68;2.53;;;24.30;99.90;;;;;;7338887;19;109383;-89
2022/08/20 10:02:09;;;;;;;8.60;2.25;;;24.30;99.90;;;;;;7346528;19;113246;-89
2022/08/20 10:04:36;;;;;;;8.02;2.00;;;24.10;99.90;;;;;;7336088;19;109427;-89
2022/08/20 10:07:07;;;;;;;9.93;1.70;;;24.00;99.90;;;;;;7341069;19;110194;-88
2022/08/20 10:09:35;;;;;;;10.82;2.15;;;24.10;99.90;;;;;;7340385;19;111193;-87
2022/08/20 10:12:03;;;;;;;10.05;2.38;;;24.00;99.50;;;;;;7340085;19;109763;-87
2022/08/20 10:14:30;;;;;;;12.52;2.13;;;24.00;99.90;;;;;;7341156;19;109430;-88
2022/08/20 10:16:58;;;;;;;7.75;2.28;;;24.00;99.90;;;;;;7338227;19;110228;-88
2022/08/20 10:19:27;;;;;;;8.73;1.77;;;24.00;99.90;;;;;;7337939;19;109491;-86
2022/08/20 10:21:54;;;;;;;10.00;2.15;;;24.00;99.90;;;;;;7340763;19;110653;-87
2022/08/20 10:24:21;;;;;;;8.43;2.10;;;24.20;99.90;;;;;;7344782;19;111135;-87
2022/08/20 10:26:49;;;;;;;7.03;2.10;;;24.20;99.90;;;;;;7338511;19;110835;-88
2022/08/20 10:29:16;;;;;;;7.82;2.03;;;24.20;99.80;;;;;;7339242;19;111893;-87
2022/08/20 10:31:43;;;;;;;12.50;2.17;;;24.20;99.90;;;;;;7337716;19;109897;-88
2022/08/20 10:34:10;;;;;;;11.30;2.60;;;24.30;99.90;;;;;;7338383;19;109979;-87
2022/08/20 10:36:37;;;;;;;16.23;2.65;;;24.40;99.90;;;;;;7338881;19;110157;-88
2022/08/20 10:39:04;;;;;;;10.05;2.00;;;24.40;99.30;;;;;;7338772;19;109374;-87
2022/08/20 10:41:31;;;;;;;17.48;2.30;;;24.40;99.30;;;;;;7337433;19;113626;-89
2022/08/20 10:44:04;;;;;;;8.07;1.80;;;24.60;99.30;;;;;;7338541;19;111404;-87
2022/08/20 10:46:31;;;;;;;7.63;1.45;;;24.70;99.10;;;;;;7343047;19;110062;-86
2022/08/20 10:48:58;;;;;;;6.57;2.10;;;24.80;98.80;;;;;;7337514;19;111425;-88
2022/08/20 10:51:25;;;;;;;8.95;1.90;;;24.80;98.70;;;;;;7335867;19;110127;-86
2022/08/20 10:53:58;;;;;;;7.40;1.80;;;24.90;98.50;;;;;;7337728;19;109376;-86
2022/08/20 10:56:25;;;;;;;12.25;1.75;;;24.90;98.30;;;;;;7338649;19;111620;-86
2022/08/20 10:58:52;;;;;;;7.05;1.65;;;25.00;97.70;;;;;;7337972;19;109304;-87
2022/08/20 11:01:19;;;;;;;7.50;1.70;;;25.00;97.80;;;;;;7337045;19;110465;-87
2022/08/20 11:03:59;;;;;;;7.20;1.77;;;25.00;97.80;;;;;;7338018;19;111505;-87
2022/08/20 11:06:26;;;;;;;7.93;1.75;;;25.10;98.00;;;;;;7339343;19;109363;-86
2022/08/20 11:08:53;;;;;;;5.38;1.50;;;25.20;97.40;;;;;;7344244;19;110557;-87
2022/08/20 11:11:23;;;;;;;9.07;1.55;;;25.30;97.00;;;;;;7338586;19;109323;-88
2022/08/20 11:13:50;;;;;;;10.48;2.05;;;25.40;97.10;;;;;;7335253;19;113349;-86
2022/08/20 11:16:17;;;;;;;11.30;1.65;;;25.50;97.00;;;;;;7337317;19;113360;-86
2022/08/20 11:18:44;;;;;;;11.38;1.90;;;25.60;96.40;;;;;;7337715;19;110716;-86
2022/08/20 11:21:13;;;;;;;10.43;2.00;;;25.60;96.00;;;;;;7335630;19;110931;-86
2022/08/20 11:23:40;;;;;;;10.80;1.73;;;25.40;94.90;;;;;;7343530;19;111378;-87
2022/08/20 11:26:08;;;;;;;7.45;1.67;;;25.30;95.70;;;;;;7345041;19;109271;-86
2022/08/20 11:28:35;;;;;;;14.68;2.35;;;25.30;95.80;;;;;;7349947;19;109344;-86
2022/08/20 11:31:02;;;;;;;7.78;2.10;;;25.30;94.10;;;;;;7345852;19;109480;-87
2022/08/20 11:33:29;;;;;;;7.97;1.90;;;25.40;95.40;;;;;;7342171;19;110798;-87
2022/08/20 11:35:56;;;;;;;8.13;1.88;;;25.50;95.10;;;;;;7345380;19;112687;-87
2022/08/20 11:38:23;;;;;;;20.10;2.10;;;25.60;94.90;;;;;;7343075;19;109402;-86
2022/08/20 11:40:50;;;;;;;15.27;2.28;;;25.60;95.40;;;;;;7342289;19;110813;-86
2022/08/20 11:43:17;;;;;;;7.95;1.92;;;25.70;95.90;;;;;;7343610;19;112827;-87
2022/08/20 11:45:48;;;;;;;9.43;2.05;;;25.90;95.70;;;;;;7342872;19;109434;-87
2022/08/20 11:48:16;;;;;;;7.82;2.00;;;26.10;95.20;;;;;;7343603;19;113913;-87
2022/08/20 11:50:44;;;;;;;6.03;1.73;;;26.30;95.20;;;;;;7350106;19;111313;-88
2022/08/20 11:53:11;;;;;;;10.40;1.88;;;26.50;94.90;;;;;;7343402;19;113440;-89
2022/08/20 11:55:41;;;;;;;14.80;1.58;;;26.30;93.30;;;;;;7344771;19;110834;-87
2022/08/20 11:58:09;;;;;;;9.35;2.00;;;26.20;93.20;;;;;;7342650;19;110828;-87
2022/08/20 12:00:36;;;;;;;9.55;2.03;;;26.20;92.90;;;;;;7342871;19;109880;-88
2022/08/20 12:03:06;;;;;;;7.72;2.00;;;26.30;94.10;;;;;;7343030;19;112108;-87
2022/08/20 12:05:37;;;;;;;8.23;1.90;;;26.50;92.90;;;;;;7343432;19;109587;-87
2022/08/20 12:08:04;;;;;;;11.65;2.00;;;26.60;93.30;;;;;;7343858;19;109692;-89
2022/08/20 12:10:32;;;;;;;11.75;2.30;;;26.70;94.00;;;;;;7343518;19;111414;-85
2022/08/20 12:12:59;;;;;;;7.40;1.95;;;26.80;92.80;;;;;;7348544;19;109434;-86
2022/08/20 12:15:31;;;;;;;8.93;2.03;;;26.90;93.20;;;;;;7342371;19;111464;-88
2022/08/20 12:17:58;;;;;;;12.32;1.80;;;27.00;93.00;;;;;;7341653;19;109744;-88
2022/08/20 12:20:25;;;;;;;11.20;2.20;;;27.00;92.00;;;;;;7341913;19;109725;-89
2022/08/20 12:22:52;;;;;;;10.82;1.83;;;26.90;92.30;;;;;;7342786;19;112759;-91
2022/08/20 12:25:20;;;;;;;9.23;1.50;;;26.90;91.10;;;;;;7339765;19;111545;-88
2022/08/20 12:27:47;;;;;;;6.28;1.80;;;27.00;91.70;;;;;;7341392;19;111143;-88
2022/08/20 12:30:18;;;;;;;9.13;1.60;;;27.10;92.00;;;;;;7341193;19;110557;-86
2022/08/20 12:32:46;;;;;;;7.90;1.50;;;27.30;91.20;;;;;;7340762;19;109722;-88
2022/08/20 12:35:14;;;;;;;9.95;2.05;;;27.50;91.20;;;;;;7342838;19;110598;-87
2022/08/20 12:37:43;;;;;;;10.95;1.67;;;27.60;90.10;;;;;;7341488;19;109297;-88
2022/08/20 12:40:17;;;;;;;3.67;1.40;;;27.70;90.30;;;;;;7338854;19;110961;-87
2022/08/20 12:42:59;;;;;;;4.95;1.30;;;27.80;90.50;;;;;;7343231;19;111874;-90
2022/08/20 12:45:26;;;;;;;7.78;1.85;;;28.00;90.00;;;;;;7344199;19;109807;-90
2022/08/20 12:48:00;;;;;;;6.22;1.58;;;28.00;90.10;;;;;;7342288;19;110972;-89
2022/08/20 12:50:27;;;;;;;7.82;1.70;;;27.90;86.90;;;;;;7341659;19;111123;-89